createdAt,value
2022-12-03T00:01:01.563Z,59.6
2022-12-03T00:06:01.634Z,58.0
2022-12-03T00:11:01.515Z,57.4
2022-12-03T00:16:01.660Z,54.8
2022-12-03T00:21:01.543Z,53.4
2022-12-03T00:26:01.510Z,53.6
2022-12-03T00:31:01.577Z,53.5
2022-12-03T00:36:01.522Z,53.8
2022-12-03T00:41:01.547Z,54.6
2022-12-03T00:51:02.099Z,54.7
2022-12-03T00:56:01.515Z,52.1
2022-12-03T01:01:01.535Z,52.7
2022-12-03T01:06:01.527Z,53.7
2022-12-03T01:11:01.518Z,54.6
2022-12-03T01:21:01.550Z,56.4
2022-12-03T01:26:01.579Z,54.4
2022-12-03T01:31:01.577Z,53.6
2022-12-03T01:36:01.553Z,54.3
2022-12-03T01:41:01.539Z,53.5
2022-12-03T01:46:01.529Z,55.3
2022-12-03T01:51:01.521Z,56.5
2022-12-03T01:56:01.505Z,57.8
2022-12-03T02:01:01.526Z,57.6
2022-12-03T02:06:02.025Z,58.3
2022-12-03T02:11:01.398Z,57.6
2022-12-03T02:21:01.542Z,55.7
2022-12-03T02:26:01.556Z,55.6
2022-12-03T02:31:02.140Z,54.4
2022-12-03T02:36:05.437Z,56.0
2022-12-03T02:41:01.576Z,56.6
2022-12-03T02:46:01.538Z,58.5
2022-12-03T02:51:01.447Z,53.1
2022-12-03T02:56:01.403Z,54.2
2022-12-03T03:01:01.403Z,52.5
2022-12-03T03:06:01.853Z,52.2
2022-12-03T03:11:01.318Z,51.0
2022-12-03T03:16:01.354Z,55.7
2022-12-03T03:21:01.296Z,54.3
2022-12-03T03:26:01.273Z,55.5
2022-12-03T03:31:03.100Z,55.9
2022-12-03T03:36:01.267Z,52.7
2022-12-03T03:41:01.250Z,51.9
2022-12-03T03:46:01.264Z,51.2
2022-12-03T03:51:01.502Z,50.7
2022-12-03T03:56:01.208Z,49.6
2022-12-03T04:01:01.655Z,53.2
2022-12-03T04:06:01.528Z,54.0
2022-12-03T04:11:02.065Z,55.6
2022-12-03T04:16:01.463Z,54.5
2022-12-03T04:21:01.545Z,56.4
2022-12-03T04:26:01.623Z,54.2
2022-12-03T04:31:01.630Z,52.4
2022-12-03T04:36:01.610Z,52.2
2022-12-03T04:41:01.527Z,49.4
2022-12-03T04:46:01.614Z,45.7
2022-12-03T04:51:01.454Z,48.0
2022-12-03T05:01:01.595Z,48.2
2022-12-03T05:06:01.553Z,52.0
2022-12-03T05:11:01.588Z,52.4
2022-12-03T05:16:01.546Z,52.2
2022-12-03T05:21:01.594Z,52.0
2022-12-03T05:26:01.537Z,50.1
2022-12-03T05:31:01.584Z,47.2
2022-12-03T05:36:01.489Z,48.5
2022-12-03T05:41:01.491Z,47.0
2022-12-03T05:46:01.489Z,45.5
2022-12-03T05:51:01.461Z,46.0
2022-12-03T05:56:01.431Z,45.7
2022-12-03T06:01:01.484Z,44.1
2022-12-03T06:06:01.533Z,42.3
2022-12-03T06:11:01.487Z,45.7
2022-12-03T06:16:02.489Z,43.2
2022-12-03T06:21:01.883Z,44.5
2022-12-03T06:26:01.509Z,46.5
2022-12-03T06:31:01.578Z,47.7
2022-12-03T06:36:01.529Z,46.6
2022-12-03T06:41:01.533Z,49.2
2022-12-03T06:46:01.537Z,47.5
2022-12-03T06:51:01.523Z,44.6
2022-12-03T06:56:01.534Z,45.6
2022-12-03T07:01:01.533Z,45.8
2022-12-03T07:06:01.520Z,46.4
2022-12-03T07:11:01.529Z,45.9
2022-12-03T07:16:01.585Z,47.9
2022-12-03T07:21:02.053Z,49.5
2022-12-03T07:26:01.509Z,49.2
2022-12-03T07:31:01.594Z,48.7
2022-12-03T07:36:01.557Z,51.4
2022-12-03T07:41:01.438Z,52.6
2022-12-03T07:46:01.471Z,50.8
2022-12-03T07:51:01.324Z,52.5
2022-12-03T07:56:01.300Z,53.9
2022-12-03T08:01:01.296Z,53.3
2022-12-03T08:06:01.227Z,53.6
2022-12-03T08:11:01.215Z,51.9
2022-12-03T08:16:11.127Z,50.5
2022-12-03T08:21:01.483Z,49.4
2022-12-03T08:26:01.489Z,49.8
2022-12-03T08:32:01.661Z,49.4
2022-12-03T08:37:02.122Z,54.1
2022-12-03T08:42:01.676Z,55.2
2022-12-03T08:47:01.712Z,54.7
2022-12-03T08:52:01.900Z,52.9
2022-12-03T08:57:01.975Z,52.7
2022-12-03T09:02:01.334Z,50.9
2022-12-03T09:07:01.512Z,49.3
2022-12-03T09:12:01.524Z,50.8
2022-12-03T09:17:02.668Z,53.5
2022-12-03T09:22:01.708Z,54.3
2022-12-03T09:27:01.492Z,54.5
2022-12-03T09:32:01.610Z,56.2
2022-12-03T09:37:01.495Z,52.2
2022-12-03T09:42:01.476Z,52.4
2022-12-03T16:36:02.161Z,69.3
2022-12-03T16:41:02.180Z,68.4
2022-12-03T16:46:01.990Z,67.7
2022-12-03T16:51:01.817Z,66.5
2022-12-03T16:56:02.119Z,63.8
2022-12-03T17:01:02.022Z,63.7
2022-12-03T17:06:01.959Z,64.1
2022-12-03T17:11:01.890Z,64.3
2022-12-03T17:16:01.837Z,67.3
2022-12-03T17:21:01.721Z,72.1
2022-12-03T17:26:01.615Z,73.6
2022-12-03T17:32:01.636Z,75.3
2022-12-03T17:37:02.084Z,75.0
2022-12-03T17:42:01.552Z,74.0
2022-12-03T17:47:01.595Z,73.6
2022-12-03T17:52:02.365Z,74.5
2022-12-03T17:57:01.263Z,73.4
2022-12-03T18:02:01.575Z,74.8
2022-12-03T18:07:02.548Z,75.6
2022-12-03T18:12:01.549Z,76.4
2022-12-03T18:17:01.555Z,75.6
2022-12-03T18:22:01.534Z,76.4
